Time;durP1;ratioP1;P1;durP2;ratioP2;P2;SDS_P1;SDS_P2;PMS_P1;PMS_P2;Temp;Humidity;BMP_temperature;BMP_pressure;BME280_temperature;BME280_humidity;BME280_pressure;Samples;Min_cycle;Max_cycle;Signal;HPM_P1;HPM_P2
2023/12/10 00:00:09;;;;;;;8.70;7.30;;;23.90;51.10;;;;;;222567;1266;23656;-50
2023/12/10 00:05:34;;;;;;;9.20;7.10;;;24.10;50.80;;;;;;222310;1266;24202;-52
2023/12/10 00:10:39;;;;;;;8.60;6.20;;;24.10;50.70;;;;;;222100;1266;24214;-53
2023/12/10 00:15:43;;;;;;;8.20;6.20;;;24.30;50.40;;;;;;222359;1267;25475;-50
2023/12/10 00:20:47;;;;;;;9.10;6.80;;;24.20;50.30;;;;;;222362;1263;22572;-53
2023/12/10 00:25:51;;;;;;;9.20;7.60;;;24.20;50.70;;;;;;222198;1269;25095;-52
2023/12/10 00:30:56;;;;;;;7.90;6.70;;;24.00;50.70;;;;;;222527;1263;22964;-52
2023/12/10 00:36:00;;;;;;;6.80;6.10;;;23.90;50.90;;;;;;222573;1260;25498;-49
2023/12/10 00:41:05;;;;;;;7.40;6.40;;;23.70;51.20;;;;;;222551;1269;22528;-52
2023/12/10 00:46:10;;;;;;;7.20;6.50;;;23.60;51.00;;;;;;222621;1263;22522;-48
2023/12/10 00:51:21;;;;;;;8.70;6.50;;;23.50;51.30;;;;;;222706;1268;22774;-51
2023/12/10 00:56:25;;;;;;;10.10;5.80;;;23.40;51.30;;;;;;222354;1261;22937;-52
2023/12/10 01:01:29;;;;;;;7.20;6.20;;;23.40;51.90;;;;;;222262;1269;22521;-53
2023/12/10 01:06:34;;;;;;;8.40;6.10;;;23.40;51.30;;;;;;222236;1263;25278;-51
2023/12/10 01:11:41;;;;;;;6.40;5.80;;;23.70;50.80;;;;;;222650;1267;26608;-53
2023/12/10 01:16:48;;;;;;;7.00;6.00;;;23.80;50.40;;;;;;222346;1269;22556;-51
2023/12/10 01:21:54;;;;;;;7.90;6.30;;;23.90;50.50;;;;;;222721;1269;27126;-49
2023/12/10 01:26:59;;;;;;;6.70;6.10;;;24.00;50.10;;;;;;222653;1254;25323;-50
2023/12/10 01:32:03;;;;;;;7.40;5.80;;;24.10;50.00;;;;;;222133;1267;22527;-52
2023/12/10 01:37:08;;;;;;;7.40;5.70;;;24.10;49.50;;;;;;222595;1263;22528;-50
2023/12/10 01:42:12;;;;;;;6.10;5.50;;;24.10;50.00;;;;;;222473;1266;22792;-52
2023/12/10 01:47:18;;;;;;;7.70;4.90;;;24.00;49.90;;;;;;222640;1269;22514;-53
2023/12/10 01:52:22;;;;;;;6.70;5.70;;;23.80;50.50;;;;;;222631;1267;23086;-50
2023/12/10 01:57:30;;;;;;;6.00;5.40;;;23.70;50.30;;;;;;222579;1260;22527;-52
2023/12/10 02:02:35;;;;;;;5.80;4.90;;;23.70;50.40;;;;;;222461;1266;22568;-49
2023/12/10 02:07:44;;;;;;;5.40;5.00;;;23.50;50.50;;;;;;222219;1266;22624;-49
2023/12/10 02:12:52;;;;;;;5.50;4.90;;;23.40;50.50;;;;;;222657;1261;24189;-51
2023/12/10 02:17:56;;;;;;;5.70;5.10;;;23.30;50.70;;;;;;222827;1266;24365;-49
2023/12/10 02:23:10;;;;;;;5.40;4.90;;;23.40;50.70;;;;;;222689;1268;22636;-50
2023/12/10 02:28:21;;;;;;;6.00;4.70;;;23.70;50.10;;;;;;222434;1267;22508;-49
2023/12/10 02:33:26;;;;;;;6.00;4.60;;;23.80;49.90;;;;;;222496;1269;25176;-51
2023/12/10 02:38:31;;;;;;;5.40;4.90;;;23.90;49.70;;;;;;222674;1268;22529;-51
2023/12/10 02:43:35;;;;;;;5.30;4.80;;;24.00;49.50;;;;;;222279;1264;22753;-52
2023/12/10 02:48:39;;;;;;;5.80;4.70;;;24.10;49.40;;;;;;223041;1268;22520;-54
2023/12/10 02:53:43;;;;;;;5.60;5.10;;;24.10;49.70;;;;;;222816;1269;22522;-50
2023/12/10 02:58:48;;;;;;;5.50;4.90;;;24.10;49.50;;;;;;222743;1266;22544;-50
2023/12/10 03:03:52;;;;;;;5.30;4.60;;;23.90;49.80;;;;;;222723;1266;25398;-52
2023/12/10 03:08:56;;;;;;;5.00;4.60;;;23.70;50.00;;;;;;222829;1267;24189;-53
2023/12/10 03:14:00;;;;;;;5.10;4.70;;;23.70;50.10;;;;;;222572;1255;24355;-51
2023/12/10 03:19:05;;;;;;;5.40;4.40;;;23.60;50.20;;;;;;222520;1264;24340;-53
2023/12/10 03:24:09;;;;;;;5.00;4.60;;;23.50;50.10;;;;;;222299;1268;23128;-51
2023/12/10 03:29:13;;;;;;;6.00;4.70;;;23.40;50.30;;;;;;222852;1264;22518;-51
2023/12/10 03:34:17;;;;;;;4.50;4.10;;;23.40;50.90;;;;;;222531;1268;22502;-52
2023/12/10 03:39:22;;;;;;;4.80;4.30;;;23.60;50.10;;;;;;222281;1264;22544;-50
2023/12/10 03:44:26;;;;;;;4.20;3.90;;;23.70;49.70;;;;;;222523;1260;25309;-53
2023/12/10 03:49:30;;;;;;;5.20;4.70;;;23.90;49.50;;;;;;222530;1264;22573;-52
2023/12/10 03:54:35;;;;;;;5.10;4.40;;;24.00;48.70;;;;;;222322;1260;22776;-53
2023/12/10 03:59:39;;;;;;;4.70;4.20;;;24.10;49.00;;;;;;222232;1268;22515;-51
2023/12/10 04:04:43;;;;;;;4.40;4.00;;;24.20;48.80;;;;;;222122;1264;22509;-51
2023/12/10 04:09:47;;;;;;;4.50;4.00;;;24.10;48.60;;;;;;222770;1268;22561;-53
2023/12/10 04:14:52;;;;;;;4.40;4.00;;;24.10;48.80;;;;;;222422;1263;24307;-52
2023/12/10 04:19:56;;;;;;;4.60;4.20;;;24.00;49.10;;;;;;222373;1264;22527;-53
2023/12/10 04:25:00;;;;;;;4.50;4.10;;;23.90;49.30;;;;;;222800;1263;22646;-53
2023/12/10 04:30:05;;;;;;;4.30;3.90;;;23.80;49.40;;;;;;222641;1268;24190;-53
2023/12/10 04:35:10;;;;;;;4.40;4.00;;;23.70;49.40;;;;;;222460;1268;24147;-54
2023/12/10 04:40:15;;;;;;;4.70;4.30;;;23.60;49.40;;;;;;222927;1260;22528;-53
2023/12/10 04:45:19;;;;;;;4.20;3.90;;;23.60;50.10;;;;;;222729;1268;24674;-49
2023/12/10 04:50:23;;;;;;;4.70;4.00;;;23.40;50.60;;;;;;222265;1264;22515;-52
2023/12/10 04:55:28;;;;;;;4.30;4.00;;;23.40;49.80;;;;;;223024;1266;22541;-52
2023/12/10 05:00:32;;;;;;;4.10;3.70;;;23.70;49.40;;;;;;222450;1260;22661;-51
2023/12/10 05:05:36;;;;;;;4.30;3.90;;;23.90;49.70;;;;;;222643;1260;22518;-50
2023/12/10 05:10:41;;;;;;;3.70;3.40;;;24.00;49.10;;;;;;222378;1264;22511;-52
2023/12/10 05:15:45;;;;;;;4.10;3.80;;;24.00;48.80;;;;;;222265;1261;22516;-52
2023/12/10 05:20:50;;;;;;;4.10;3.80;;;24.10;48.90;;;;;;222188;1264;24205;-52
2023/12/10 05:25:54;;;;;;;4.60;4.20;;;24.00;49.10;;;;;;222520;1253;24348;-51
2023/12/10 05:30:58;;;;;;;4.10;3.60;;;23.90;49.30;;;;;;222639;1268;24430;-53
2023/12/10 05:36:03;;;;;;;4.10;3.70;;;23.80;49.50;;;;;;222656;1268;24195;-52
2023/12/10 05:41:07;;;;;;;4.10;3.80;;;23.70;49.70;;;;;;222894;1267;22571;-53
2023/12/10 05:46:11;;;;;;;5.60;4.00;;;23.60;49.60;;;;;;222636;1253;23899;-52
2023/12/10 05:51:15;;;;;;;3.90;3.60;;;23.50;49.80;;;;;;222057;1268;24340;-50
2023/12/10 05:56:19;;;;;;;4.00;3.70;;;23.40;49.90;;;;;;222453;1268;25613;-51
2023/12/10 06:01:24;;;;;;;4.40;4.10;;;23.30;50.00;;;;;;222321;1268;22518;-53
2023/12/10 06:06:28;;;;;;;4.20;3.50;;;23.30;50.70;;;;;;222522;1260;25428;-54
2023/12/10 06:11:32;;;;;;;5.30;3.60;;;23.30;50.30;;;;;;222739;1248;24983;-53
2023/12/10 06:16:37;;;;;;;4.00;3.70;;;23.10;50.30;;;;;;222700;1253;22915;-48
2023/12/10 06:21:41;;;;;;;3.90;3.50;;;23.10;50.40;;;;;;222389;1266;267523;-53
2023/12/10 06:26:45;;;;;;;4.90;3.40;;;23.10;50.80;;;;;;222568;1263;23900;-51
2023/12/10 06:31:49;;;;;;;3.80;3.50;;;23.40;50.70;;;;;;222521;1257;22526;-51
2023/12/10 06:36:53;;;;;;;3.90;3.60;;;23.80;49.80;;;;;;222286;1268;24205;-54
2023/12/10 06:41:58;;;;;;;4.50;3.20;;;23.90;49.10;;;;;;222561;1264;22515;-53
2023/12/10 06:47:02;;;;;;;3.70;3.40;;;24.20;48.30;;;;;;222638;1266;22602;-51
2023/12/10 06:52:07;;;;;;;4.70;3.50;;;24.10;48.40;;;;;;222871;1260;22669;-50
2023/12/10 06:57:11;;;;;;;3.90;3.60;;;24.10;48.40;;;;;;222887;1266;22562;-50
2023/12/10 07:02:15;;;;;;;3.80;3.40;;;23.90;48.70;;;;;;222717;1261;24317;-53
2023/12/10 07:07:19;;;;;;;3.60;3.30;;;23.70;49.60;;;;;;222421;1266;22542;-52
2023/12/10 07:12:24;;;;;;;3.40;3.20;;;23.60;49.50;;;;;;222839;1264;22715;-52
2023/12/10 07:17:28;;;;;;;3.60;3.30;;;23.60;49.50;;;;;;222509;1264;25319;-54
2023/12/10 07:22:32;;;;;;;3.50;3.30;;;23.40;49.70;;;;;;222461;1250;22649;-54
2023/12/10 07:27:37;;;;;;;3.80;3.20;;;23.30;49.90;;;;;;222693;1260;22630;-53
2023/12/10 07:32:41;;;;;;;3.60;3.30;;;23.20;49.80;;;;;;222986;1268;22524;-51
2023/12/10 07:37:45;;;;;;;4.00;3.70;;;23.10;49.90;;;;;;222591;1264;22525;-51
2023/12/10 07:42:51;;;;;;;3.80;3.40;;;23.10;50.10;;;;;;222614;1268;24222;-53
2023/12/10 07:47:56;;;;;;;3.80;3.50;;;23.00;50.30;;;;;;222414;1267;24195;-50
2023/12/10 07:53:00;;;;;;;3.90;3.50;;;23.00;50.40;;;;;;222456;1260;22759;-52
2023/12/10 07:58:08;;;;;;;3.80;3.50;;;23.20;49.80;;;;;;222426;1263;22561;-52
2023/12/10 08:03:13;;;;;;;4.00;3.70;;;23.50;49.30;;;;;;222547;1266;24235;-52
2023/12/10 08:08:18;;;;;;;4.00;3.70;;;23.70;49.00;;;;;;222748;1260;24385;-50
2023/12/10 08:13:23;;;;;;;5.20;3.80;;;23.90;48.70;;;;;;222659;1260;22546;-51
2023/12/10 08:18:27;;;;;;;3.40;3.20;;;23.90;48.60;;;;;;222841;1266;22514;-51
2023/12/10 08:23:31;;;;;;;3.40;3.10;;;23.90;48.70;;;;;;222857;1264;22622;-51
2023/12/10 08:28:36;;;;;;;3.70;3.40;;;23.70;49.00;;;;;;222690;1251;22644;-51
2023/12/10 08:33:40;;;;;;;3.70;3.40;;;23.60;49.30;;;;;;222329;1261;22599;-53
2023/12/10 08:38:46;;;;;;;3.50;3.00;;;23.50;49.70;;;;;;222309;1249;22820;-51
2023/12/10 08:43:50;;;;;;;3.50;3.20;;;23.40;49.70;;;;;;222521;1260;22632;-50
2023/12/10 08:48:55;;;;;;;3.00;2.80;;;23.30;50.00;;;;;;222727;1263;25227;-51
2023/12/10 08:53:59;;;;;;;4.90;3.30;;;23.20;50.30;;;;;;222556;1263;22677;-52
2023/12/10 08:59:03;;;;;;;4.80;3.60;;;23.10;50.60;;;;;;222306;1267;23002;-53
2023/12/10 09:04:08;;;;;;;3.90;3.50;;;23.10;50.50;;;;;;222605;1267;24246;-53
2023/12/10 09:09:12;;;;;;;4.00;3.70;;;23.10;51.30;;;;;;222568;1258;22519;-53
2023/12/10 09:14:18;;;;;;;3.70;3.30;;;23.10;50.90;;;;;;222592;1268;24189;-53
2023/12/10 09:19:23;;;;;;;3.70;3.40;;;23.20;51.30;;;;;;222334;1268;22513;-54
2023/12/10 09:24:28;;;;;;;4.30;3.50;;;23.40;51.40;;;;;;222447;1257;26549;-51
2023/12/10 09:29:38;;;;;;;5.50;3.70;;;23.70;50.10;;;;;;222520;1258;24349;-53
2023/12/10 09:34:43;;;;;;;5.60;3.20;;;24.00;49.60;;;;;;222636;1268;25217;-52
2023/12/10 09:39:47;;;;;;;3.90;3.60;;;24.00;49.40;;;;;;222479;1257;24323;-53
2023/12/10 09:44:52;;;;;;;5.60;3.80;;;24.00;49.20;;;;;;222946;1267;22646;-53
2023/12/10 09:49:59;;;;;;;5.00;3.70;;;23.80;49.30;;;;;;222445;1268;22651;-53
2023/12/10 09:55:03;;;;;;;6.30;4.20;;;23.60;49.90;;;;;;222325;1268;22842;-52
2023/12/10 10:00:08;;;;;;;5.80;3.90;;;23.50;50.30;;;;;;222916;1260;24281;-52
2023/12/10 10:05:12;;;;;;;3.30;3.00;;;23.30;50.30;;;;;;222462;1266;22567;-50
2023/12/10 10:10:20;;;;;;;5.90;3.60;;;23.20;50.30;;;;;;222539;1256;22621;-53
2023/12/10 10:15:27;;;;;;;3.80;3.50;;;23.30;50.60;;;;;;222538;1264;22521;-52
2023/12/10 10:20:32;;;;;;;10.20;3.60;;;23.10;50.40;;;;;;222338;1268;22654;-48
2023/12/10 10:25:39;;;;;;;7.00;3.30;;;23.10;50.80;;;;;;222695;1263;22514;-52
2023/12/10 10:30:44;;;;;;;4.70;3.90;;;23.50;50.10;;;;;;222501;1266;25234;-51
2023/12/10 10:35:51;;;;;;;5.90;3.60;;;23.70;49.50;;;;;;222793;1253;24053;-51
2023/12/10 10:41:00;;;;;;;4.10;3.70;;;23.90;48.60;;;;;;222249;1269;26163;-50
2023/12/10 10:46:07;;;;;;;3.50;3.30;;;24.00;48.30;;;;;;222349;1266;24235;-51
2023/12/10 10:51:12;;;;;;;8.50;3.90;;;23.90;48.50;;;;;;222615;1268;25331;-50
2023/12/10 10:56:16;;;;;;;6.10;3.60;;;23.90;48.40;;;;;;222569;1263;24315;-50
2023/12/10 11:01:41;;;;;;;13.50;5.90;;;23.70;48.70;;;;;;222618;1266;22975;-52
2023/12/10 11:06:47;;;;;;;10.00;5.00;;;23.70;50.80;;;;;;222281;1257;24701;-52
2023/12/10 11:11:51;;;;;;;6.50;4.30;;;23.60;51.40;;;;;;222584;1263;22637;-53
2023/12/10 11:17:05;;;;;;;11.80;4.80;;;23.60;51.40;;;;;;222191;1263;22947;-50
2023/12/10 11:22:09;;;;;;;6.00;4.80;;;23.60;51.50;;;;;;222788;1266;25223;-48
2023/12/10 11:27:14;;;;;;;9.60;5.30;;;23.50;51.10;;;;;;222892;1247;24529;-56
2023/12/10 11:32:18;;;;;;;8.40;4.70;;;23.40;51.20;;;;;;222607;1263;22539;-50
2023/12/10 11:37:23;;;;;;;13.80;5.10;;;23.30;51.60;;;;;;222884;1263;22539;-50
2023/12/10 11:42:27;;;;;;;6.30;4.20;;;23.30;51.20;;;;;;222262;1263;23905;-48
2023/12/10 11:47:32;;;;;;;8.80;4.80;;;23.30;51.10;;;;;;222458;1263;22643;-51
2023/12/10 11:52:39;;;;;;;7.40;4.40;;;23.10;51.10;;;;;;222563;1266;25383;-50
2023/12/10 11:57:43;;;;;;;9.20;5.00;;;23.10;51.80;;;;;;222188;1268;24479;-49
2023/12/10 12:02:48;;;;;;;8.80;4.30;;;23.10;51.70;;;;;;222468;1268;24199;-51
2023/12/10 12:07:52;;;;;;;5.50;4.60;;;22.90;51.50;;;;;;222745;1261;25338;-51
2023/12/10 12:12:56;;;;;;;5.50;4.60;;;22.90;51.40;;;;;;222511;1267;24240;-50
2023/12/10 12:18:02;;;;;;;7.80;4.80;;;22.90;51.20;;;;;;222481;1267;24393;-48
2023/12/10 12:23:07;;;;;;;6.00;4.40;;;22.80;51.00;;;;;;222682;1268;24277;-51
2023/12/10 12:28:12;;;;;;;5.20;4.60;;;22.70;50.90;;;;;;223221;1261;22645;-50
2023/12/10 12:33:16;;;;;;;8.10;5.00;;;22.60;51.20;;;;;;222818;1267;22521;-51
2023/12/10 12:38:21;;;;;;;6.20;4.80;;;22.60;50.80;;;;;;222566;1260;22528;-50
2023/12/10 12:43:26;;;;;;;5.50;5.00;;;22.60;50.70;;;;;;222573;1263;22771;-52
2023/12/10 12:48:30;;;;;;;5.80;4.90;;;22.90;50.10;;;;;;222666;1255;22530;-51
2023/12/10 12:53:35;;;;;;;5.10;4.60;;;23.30;49.00;;;;;;222354;1267;22533;-53
2023/12/10 12:59:00;;;;;;;5.70;4.80;;;23.60;48.20;;;;;;222389;1265;22543;-52
2023/12/10 13:04:04;;;;;;;5.20;4.70;;;23.80;47.90;;;;;;222625;1263;22749;-49
2023/12/10 13:09:09;;;;;;;5.60;4.80;;;23.70;47.60;;;;;;222571;1263;25519;-52
2023/12/10 13:14:14;;;;;;;6.20;4.70;;;23.70;47.50;;;;;;222657;1247;22877;-48
2023/12/10 13:19:18;;;;;;;6.90;5.10;;;23.70;47.70;;;;;;222683;1260;22524;-52
2023/12/10 13:24:23;;;;;;;7.20;5.20;;;23.60;47.90;;;;;;222764;1268;22609;-51
2023/12/10 13:29:27;;;;;;;6.80;5.30;;;23.40;47.70;;;;;;222685;1265;22537;-50
2023/12/10 13:34:32;;;;;;;6.80;5.70;;;23.30;48.20;;;;;;222575;1268;22514;-51
2023/12/10 13:39:36;;;;;;;6.50;5.40;;;23.20;48.10;;;;;;222295;1261;22529;-47
2023/12/10 13:44:40;;;;;;;7.10;5.50;;;23.10;48.20;;;;;;222636;1268;22537;-51
2023/12/10 13:49:45;;;;;;;6.00;5.40;;;23.00;48.30;;;;;;222723;1253;24241;-53
2023/12/10 13:54:49;;;;;;;8.60;5.90;;;22.90;48.30;;;;;;222489;1260;24193;-49
2023/12/10 13:59:54;;;;;;;6.80;5.40;;;22.90;48.50;;;;;;222674;1259;24890;-49
2023/12/10 14:04:59;;;;;;;7.50;6.10;;;22.80;48.60;;;;;;222591;1268;22536;-49
2023/12/10 14:10:04;;;;;;;8.70;5.90;;;22.70;49.10;;;;;;222956;1266;22530;-52
2023/12/10 14:15:09;;;;;;;8.90;6.30;;;22.70;48.50;;;;;;222737;1266;26020;-51
2023/12/10 14:20:14;;;;;;;7.60;6.70;;;22.60;48.50;;;;;;222994;1261;22527;-49
2023/12/10 14:25:22;;;;;;;8.00;6.50;;;22.50;48.50;;;;;;222298;1259;23931;-50
2023/12/10 14:30:26;;;;;;;7.60;6.50;;;22.40;48.60;;;;;;222480;1266;22521;-51
2023/12/10 14:35:30;;;;;;;10.00;6.60;;;22.40;48.60;;;;;;222604;1268;22518;-51
2023/12/10 14:40:35;;;;;;;9.30;7.10;;;22.70;48.10;;;;;;222592;1268;22514;-49
2023/12/10 14:45:39;;;;;;;8.80;7.30;;;23.10;47.10;;;;;;222844;1266;22514;-52
2023/12/10 14:50:43;;;;;;;11.20;7.30;;;23.40;46.60;;;;;;222445;1256;24162;-49
2023/12/10 14:55:48;;;;;;;7.30;6.60;;;23.60;46.20;;;;;;222819;1261;25459;-49
2023/12/10 15:00:53;;;;;;;7.90;7.00;;;23.70;46.20;;;;;;222619;1266;22518;-49
2023/12/10 15:05:57;;;;;;;7.70;6.90;;;23.60;46.60;;;;;;222554;1254;25312;-49
2023/12/10 15:11:02;;;;;;;8.20;6.70;;;23.50;46.20;;;;;;222475;1268;22510;-51
2023/12/10 15:16:07;;;;;;;8.70;6.70;;;23.50;46.40;;;;;;222639;1261;23189;-52
2023/12/10 15:21:11;;;;;;;8.00;6.60;;;23.40;46.10;;;;;;222690;1266;25420;-50
2023/12/10 15:26:18;;;;;;;7.60;6.60;;;23.30;46.40;;;;;;223021;1266;22637;-49
2023/12/10 15:31:22;;;;;;;6.70;6.00;;;23.10;46.40;;;;;;226201;1257;23894;-50
2023/12/10 15:36:26;;;;;;;8.60;5.70;;;23.10;46.50;;;;;;222437;1260;25217;-51
2023/12/10 15:41:33;;;;;;;7.50;6.50;;;23.00;46.80;;;;;;222578;1266;22627;-49
2023/12/10 15:46:37;;;;;;;8.30;6.30;;;22.80;46.80;;;;;;222614;1266;23334;-49
2023/12/10 15:51:41;;;;;;;8.90;6.50;;;22.80;47.10;;;;;;222422;1266;22876;-50
2023/12/10 15:56:45;;;;;;;6.90;6.20;;;22.60;47.50;;;;;;222426;1268;22515;-49
2023/12/10 16:01:50;;;;;;;8.10;6.30;;;22.60;47.20;;;;;;222712;1268;22520;-48
2023/12/10 16:06:54;;;;;;;7.20;6.00;;;22.50;47.30;;;;;;222349;1261;24931;-50
2023/12/10 16:11:59;;;;;;;7.60;5.60;;;22.50;47.30;;;;;;222690;1267;24731;-48
2023/12/10 16:17:09;;;;;;;7.80;6.10;;;22.40;47.40;;;;;;222926;1253;25414;-52
2023/12/10 16:22:15;;;;;;;6.90;6.00;;;22.80;46.70;;;;;;222846;1260;22693;-48
2023/12/10 16:27:19;;;;;;;8.40;7.10;;;23.10;46.20;;;;;;222672;1263;22516;-52
2023/12/10 16:32:24;;;;;;;7.00;6.20;;;23.30;45.80;;;;;;222790;1266;24329;-49
2023/12/10 16:37:29;;;;;;;7.70;5.90;;;23.60;45.10;;;;;;222874;1264;23886;-52
2023/12/10 16:42:34;;;;;;;7.80;6.00;;;23.60;45.00;;;;;;222760;1268;22570;-52
2023/12/10 16:47:38;;;;;;;7.60;6.50;;;23.50;44.90;;;;;;222862;1254;22529;-51
2023/12/10 16:52:44;;;;;;;5.80;5.20;;;23.40;45.10;;;;;;222664;1261;25446;-48
2023/12/10 16:57:50;;;;;;;6.30;5.70;;;23.40;45.10;;;;;;222478;1268;24170;-49
2023/12/10 17:02:54;;;;;;;8.60;6.20;;;23.30;45.20;;;;;;222387;1259;25390;-49
2023/12/10 17:07:59;;;;;;;7.40;5.90;;;23.30;45.50;;;;;;222567;1259;24186;-49
2023/12/10 17:13:07;;;;;;;7.40;6.20;;;23.10;45.70;;;;;;222535;1268;22525;-49
2023/12/10 17:18:12;;;;;;;6.30;5.50;;;23.00;46.00;;;;;;222421;1268;24048;-48
2023/12/10 17:23:16;;;;;;;5.90;5.40;;;22.90;46.00;;;;;;222149;1261;23128;-51
2023/12/10 17:28:20;;;;;;;6.90;6.20;;;22.70;46.30;;;;;;222453;1268;23647;-50
2023/12/10 17:33:26;;;;;;;6.60;5.90;;;22.70;46.40;;;;;;222413;1268;24393;-47
2023/12/10 17:38:30;;;;;;;7.30;6.00;;;22.60;46.40;;;;;;222388;1266;22513;-53
2023/12/10 17:43:35;;;;;;;6.20;5.60;;;22.60;46.40;;;;;;222588;1268;22510;-50
2023/12/10 17:48:40;;;;;;;9.70;6.10;;;22.60;46.50;;;;;;222848;1266;22568;-50
2023/12/10 17:53:44;;;;;;;7.20;5.80;;;22.50;47.10;;;;;;222627;1260;24269;-51
2023/12/10 17:58:48;;;;;;;6.20;5.60;;;22.50;46.50;;;;;;222626;1261;22629;-49
2023/12/10 18:03:53;;;;;;;6.20;5.50;;;22.50;46.60;;;;;;222687;1266;22511;-47
2023/12/10 18:08:58;;;;;;;7.30;5.80;;;22.80;46.20;;;;;;222630;1245;23892;-51
2023/12/10 18:14:02;;;;;;;6.20;5.50;;;23.20;45.40;;;;;;222891;1268;22571;-52
2023/12/10 18:19:08;;;;;;;6.90;5.50;;;23.40;45.40;;;;;;222209;1266;22530;-51
2023/12/10 18:24:13;;;;;;;6.70;5.50;;;23.60;44.90;;;;;;222255;1252;242838;-49
2023/12/10 18:29:18;;;;;;;8.20;6.10;;;23.60;45.10;;;;;;222712;1268;22513;-51
2023/12/10 18:34:24;;;;;;;7.60;6.50;;;23.50;44.40;;;;;;222481;1266;22521;-48
2023/12/10 18:39:30;;;;;;;6.10;5.50;;;23.40;45.10;;;;;;222468;1260;22651;-49
2023/12/10 18:44:34;;;;;;;6.70;6.00;;;23.20;45.30;;;;;;222421;1268;24215;-56
2023/12/10 18:49:39;;;;;;;5.80;5.30;;;23.10;45.30;;;;;;222809;1264;22563;-50
2023/12/10 18:54:44;;;;;;;6.30;5.70;;;23.00;45.50;;;;;;222520;1266;24316;-48
2023/12/10 18:59:48;;;;;;;9.20;6.20;;;23.00;45.40;;;;;;222959;1260;22755;-48
2023/12/10 19:04:53;;;;;;;8.90;5.60;;;22.80;45.40;;;;;;222479;1247;23915;-53
2023/12/10 19:09:57;;;;;;;8.20;6.60;;;22.70;45.80;;;;;;222595;1266;24408;-53
2023/12/10 19:15:03;;;;;;;7.30;5.60;;;22.80;46.20;;;;;;222466;1264;22521;-47
2023/12/10 19:20:22;;;;;;;8.10;6.10;;;23.30;45.70;;;;;;222698;1261;23906;-48
2023/12/10 19:25:27;;;;;;;7.40;5.40;;;23.50;45.50;;;;;;222566;1263;24422;-50
2023/12/10 19:30:32;;;;;;;6.60;5.40;;;23.60;45.60;;;;;;222486;1268;25474;-48
2023/12/10 19:35:37;;;;;;;7.60;5.40;;;23.70;45.60;;;;;;222595;1266;24507;-51
2023/12/10 19:40:41;;;;;;;6.00;5.00;;;23.80;45.80;;;;;;222546;1266;25459;-52
2023/12/10 19:45:45;;;;;;;9.20;5.30;;;23.70;45.90;;;;;;222346;1268;22801;-53
2023/12/10 19:50:50;;;;;;;6.70;4.80;;;23.60;46.30;;;;;;222868;1257;22505;-50
2023/12/10 19:55:54;;;;;;;9.50;5.50;;;23.50;46.30;;;;;;222688;1261;25323;-53
2023/12/10 20:01:00;;;;;;;7.20;4.90;;;23.40;47.10;;;;;;222841;1261;25316;-55
2023/12/10 20:06:06;;;;;;;10.20;6.10;;;23.30;48.10;;;;;;222851;1267;22534;-55
2023/12/10 20:11:11;;;;;;;9.30;5.20;;;23.30;48.30;;;;;;222530;1260;25192;-52
2023/12/10 20:16:18;;;;;;;6.50;4.50;;;23.10;48.20;;;;;;222747;1261;24977;-54
2023/12/10 20:21:23;;;;;;;9.90;5.10;;;23.10;47.80;;;;;;222672;1260;22633;-52
2023/12/10 20:26:28;;;;;;;7.50;4.90;;;23.00;47.50;;;;;;223028;1261;22518;-53
2023/12/10 20:31:46;;;;;;;9.60;5.30;;;22.90;48.10;;;;;;222622;1264;24362;-52
2023/12/10 20:36:51;;;;;;;11.60;5.30;;;23.10;47.80;;;;;;222799;1256;22514;-50
2023/12/10 20:41:56;;;;;;;6.70;4.80;;;23.60;50.40;;;;;;222680;1251;25323;-53
2023/12/10 20:47:00;;;;;;;11.20;5.40;;;23.90;49.80;;;;;;222848;1267;22517;-52
2023/12/10 20:52:05;;;;;;;12.60;5.30;;;23.70;49.10;;;;;;222467;1264;24380;-54
2023/12/10 20:57:10;;;;;;;7.70;4.90;;;23.50;49.40;;;;;;222359;1267;22521;-55
2023/12/10 21:02:15;;;;;;;16.60;5.20;;;23.60;49.50;;;;;;222375;1268;22758;-59
2023/12/10 21:07:19;;;;;;;7.00;5.40;;;23.60;49.60;;;;;;222434;1268;24531;-55
2023/12/10 21:12:25;;;;;;;8.80;5.10;;;23.40;49.60;;;;;;222728;1266;23668;-49
2023/12/10 21:17:29;;;;;;;9.30;4.80;;;23.40;49.40;;;;;;222179;1267;22526;-50
2023/12/10 21:22:34;;;;;;;6.70;4.60;;;23.30;49.20;;;;;;222307;1266;25099;-50
2023/12/10 21:27:39;;;;;;;9.10;5.10;;;23.20;49.20;;;;;;222256;1267;22528;-52
2023/12/10 21:32:43;;;;;;;12.70;5.30;;;23.40;48.60;;;;;;222951;1266;22537;-48
2023/12/10 21:37:47;;;;;;;6.10;4.20;;;23.70;48.20;;;;;;222612;1268;22515;-52
2023/12/10 21:42:52;;;;;;;7.40;5.10;;;23.90;47.30;;;;;;222807;1268;25271;-50
2023/12/10 21:47:56;;;;;;;5.60;4.50;;;24.10;47.10;;;;;;222221;1261;24203;-51
2023/12/10 21:53:01;;;;;;;15.40;4.90;;;24.10;46.70;;;;;;222507;1268;25240;-51
2023/12/10 21:58:05;;;;;;;7.60;5.00;;;24.10;48.50;;;;;;222764;1268;24148;-50
2023/12/10 22:03:09;;;;;;;9.90;4.90;;;24.10;49.70;;;;;;223325;1268;22529;-50
2023/12/10 22:08:14;;;;;;;8.40;4.30;;;24.10;49.10;;;;;;222816;1267;22523;-49
2023/12/10 22:13:19;;;;;;;6.40;4.70;;;24.10;49.60;;;;;;222642;1260;24199;-52
2023/12/10 22:18:24;;;;;;;16.60;5.10;;;24.00;49.30;;;;;;222543;1266;23132;-51
2023/12/10 22:23:28;;;;;;;8.50;4.80;;;24.00;49.50;;;;;;222709;1260;25349;-51
2023/12/10 22:28:32;;;;;;;6.60;4.10;;;23.90;49.40;;;;;;222605;1261;24163;-45
2023/12/10 22:33:38;;;;;;;6.10;4.20;;;23.60;49.80;;;;;;222292;1264;22922;-45
2023/12/10 22:38:48;;;;;;;7.50;4.20;;;23.60;49.80;;;;;;222483;1267;24215;-47
2023/12/10 22:43:53;;;;;;;6.80;4.60;;;23.60;49.80;;;;;;222661;1264;22770;-45
2023/12/10 22:48:58;;;;;;;6.10;3.80;;;23.60;49.80;;;;;;222323;1261;24230;-45
2023/12/10 22:54:05;;;;;;;7.40;4.10;;;23.80;49.00;;;;;;222345;1264;24222;-48
2023/12/10 22:59:09;;;;;;;5.80;3.90;;;24.00;48.50;;;;;;222421;1261;22511;-46
2023/12/10 23:04:13;;;;;;;7.20;4.30;;;24.20;48.20;;;;;;222392;1260;22737;-49
2023/12/10 23:09:18;;;;;;;5.80;3.40;;;24.30;47.90;;;;;;222463;1268;22520;-47
2023/12/10 23:14:23;;;;;;;8.30;3.70;;;24.20;47.90;;;;;;222687;1264;22570;-49
2023/12/10 23:19:28;;;;;;;4.80;3.40;;;24.10;48.10;;;;;;222787;1261;24376;-46
2023/12/10 23:24:35;;;;;;;6.30;3.80;;;24.10;48.60;;;;;;222740;1260;22629;-45
2023/12/10 23:29:39;;;;;;;4.10;3.20;;;24.00;48.40;;;;;;222544;1264;22576;-45
2023/12/10 23:34:43;;;;;;;4.70;3.40;;;23.80;48.60;;;;;;222928;1264;25571;-44
2023/12/10 23:39:48;;;;;;;5.60;3.80;;;23.70;48.80;;;;;;222309;1260;24361;-46
2023/12/10 23:44:53;;;;;;;5.90;3.50;;;23.50;49.30;;;;;;222478;1254;22649;-46
2023/12/10 23:49:57;;;;;;;5.40;3.30;;;23.50;49.40;;;;;;222589;1257;22525;-47
2023/12/10 23:55:03;;;;;;;5.30;3.50;;;23.40;49.30;;;;;;222533;1264;24330;-49
